sensor_id;sensor_type;location;lat;lon;timestamp;pressure;altitude;pressure_sealevel;temperature;humidity
72336;BME280;73817;48.446;8.834;2023-12-20T00:01:04;97622.38;;;7.27;75.41
72336;BME280;73817;48.446;8.834;2023-12-20T00:04:05;97621.25;;;7.29;75.86
72336;BME280;73817;48.446;8.834;2023-12-20T00:07:06;97605.47;;;7.31;75.98
72336;BME280;73817;48.446;8.834;2023-12-20T00:10:06;97607.41;;;7.29;75.14
72336;BME280;73817;48.446;8.834;2023-12-20T00:13:07;97594.41;;;7.29;76.25
72336;BME280;73817;48.446;8.834;2023-12-20T00:16:07;97604.00;;;7.28;76.09
72336;BME280;73817;48.446;8.834;2023-12-20T00:19:08;97601.38;;;7.28;75.71
72336;BME280;73817;48.446;8.834;2023-12-20T00:22:08;97604.81;;;7.29;75.94
72336;BME280;73817;48.446;8.834;2023-12-20T00:25:09;97590.97;;;7.28;76.22
72336;BME280;73817;48.446;8.834;2023-12-20T00:28:09;97601.22;;;7.30;76.00
72336;BME280;73817;48.446;8.834;2023-12-20T00:31:09;97588.22;;;7.30;75.63
72336;BME280;73817;48.446;8.834;2023-12-20T00:34:10;97578.94;;;7.27;76.44
72336;BME280;73817;48.446;8.834;2023-12-20T00:37:10;97579.28;;;7.24;75.82
72336;BME280;73817;48.446;8.834;2023-12-20T00:40:11;97566.09;;;7.18;77.14
72336;BME280;73817;48.446;8.834;2023-12-20T00:43:11;97568.22;;;7.14;77.20
72336;BME280;73817;48.446;8.834;2023-12-20T00:46:12;97567.06;;;7.09;76.34
72336;BME280;73817;48.446;8.834;2023-12-20T00:49:12;97575.84;;;7.08;76.55
72336;BME280;73817;48.446;8.834;2023-12-20T00:52:13;97572.44;;;7.07;78.55
72336;BME280;73817;48.446;8.834;2023-12-20T00:55:13;97579.44;;;7.07;77.49
72336;BME280;73817;48.446;8.834;2023-12-20T00:58:14;97574.53;;;7.04;78.64
72336;BME280;73817;48.446;8.834;2023-12-20T01:01:15;97577.47;;;7.01;77.71
72336;BME280;73817;48.446;8.834;2023-12-20T01:04:15;97586.09;;;7.01;79.26
72336;BME280;73817;48.446;8.834;2023-12-20T01:07:16;97593.06;;;7.01;79.17
72336;BME280;73817;48.446;8.834;2023-12-20T01:10:16;97600.56;;;7.04;79.55
72336;BME280;73817;48.446;8.834;2023-12-20T01:13:17;97599.94;;;7.10;80.29
72336;BME280;73817;48.446;8.834;2023-12-20T01:16:17;97600.44;;;7.13;80.11
72336;BME280;73817;48.446;8.834;2023-12-20T01:19:18;97603.19;;;7.12;79.45
72336;BME280;73817;48.446;8.834;2023-12-20T01:22:18;97604.81;;;7.13;80.39
72336;BME280;73817;48.446;8.834;2023-12-20T01:25:19;97595.38;;;7.12;82.32
72336;BME280;73817;48.446;8.834;2023-12-20T01:28:19;97591.13;;;7.11;81.98
72336;BME280;73817;48.446;8.834;2023-12-20T01:31:19;97592.94;;;7.10;82.99
72336;BME280;73817;48.446;8.834;2023-12-20T01:34:20;97600.91;;;7.09;82.59
72336;BME280;73817;48.446;8.834;2023-12-20T01:37:21;97600.25;;;7.07;83.08
72336;BME280;73817;48.446;8.834;2023-12-20T01:40:24;97604.63;;;7.06;82.63
72336;BME280;73817;48.446;8.834;2023-12-20T01:43:25;97610.81;;;7.05;83.55
72336;BME280;73817;48.446;8.834;2023-12-20T01:46:25;97602.19;;;7.05;84.26
72336;BME280;73817;48.446;8.834;2023-12-20T01:49:26;97612.13;;;7.01;84.13
72336;BME280;73817;48.446;8.834;2023-12-20T01:52:27;97605.25;;;7.00;84.24
72336;BME280;73817;48.446;8.834;2023-12-20T01:55:31;97608.19;;;6.97;85.54
72336;BME280;73817;48.446;8.834;2023-12-20T01:58:32;97601.53;;;6.95;84.73
72336;BME280;73817;48.446;8.834;2023-12-20T02:01:32;97598.25;;;6.93;86.15
72336;BME280;73817;48.446;8.834;2023-12-20T02:04:33;97590.44;;;6.93;86.41
72336;BME280;73817;48.446;8.834;2023-12-20T02:07:34;97590.28;;;6.94;87.04
72336;BME280;73817;48.446;8.834;2023-12-20T02:10:37;97579.25;;;6.92;87.04
72336;BME280;73817;48.446;8.834;2023-12-20T02:13:37;97577.63;;;6.91;87.54
72336;BME280;73817;48.446;8.834;2023-12-20T02:16:38;97582.00;;;6.91;86.88
72336;BME280;73817;48.446;8.834;2023-12-20T02:19:38;97580.41;;;6.90;86.11
72336;BME280;73817;48.446;8.834;2023-12-20T02:22:38;97580.88;;;6.85;87.04
72336;BME280;73817;48.446;8.834;2023-12-20T02:25:39;97587.19;;;6.83;87.25
72336;BME280;73817;48.446;8.834;2023-12-20T02:28:39;97588.84;;;6.84;88.01
72336;BME280;73817;48.446;8.834;2023-12-20T02:31:39;97578.44;;;6.84;88.49
72336;BME280;73817;48.446;8.834;2023-12-20T02:34:40;97589.63;;;6.84;88.63
72336;BME280;73817;48.446;8.834;2023-12-20T02:37:40;97581.97;;;6.83;88.72
72336;BME280;73817;48.446;8.834;2023-12-20T02:40:40;97579.38;;;6.83;89.40
72336;BME280;73817;48.446;8.834;2023-12-20T02:43:41;97570.63;;;6.84;88.96
72336;BME280;73817;48.446;8.834;2023-12-20T02:46:41;97585.56;;;6.82;88.48
72336;BME280;73817;48.446;8.834;2023-12-20T02:49:42;97586.38;;;6.82;87.84
72336;BME280;73817;48.446;8.834;2023-12-20T02:52:44;97580.53;;;6.80;88.80
72336;BME280;73817;48.446;8.834;2023-12-20T02:55:45;97578.75;;;6.81;89.89
72336;BME280;73817;48.446;8.834;2023-12-20T02:58:45;97586.72;;;6.79;88.39
72336;BME280;73817;48.446;8.834;2023-12-20T03:01:46;97589.31;;;6.79;88.82
72336;BME280;73817;48.446;8.834;2023-12-20T03:04:46;97585.88;;;6.79;89.27
72336;BME280;73817;48.446;8.834;2023-12-20T03:07:47;97587.66;;;6.78;89.05
72336;BME280;73817;48.446;8.834;2023-12-20T03:10:47;97591.25;;;6.77;88.71
72336;BME280;73817;48.446;8.834;2023-12-20T03:13:47;97587.66;;;6.78;88.38
72336;BME280;73817;48.446;8.834;2023-12-20T03:16:51;97584.44;;;6.76;88.56
72336;BME280;73817;48.446;8.834;2023-12-20T03:19:51;97587.66;;;6.70;88.02
72336;BME280;73817;48.446;8.834;2023-12-20T03:22:51;97594.78;;;6.68;89.03
72336;BME280;73817;48.446;8.834;2023-12-20T03:25:52;97596.44;;;6.69;88.91
72336;BME280;73817;48.446;8.834;2023-12-20T03:28:52;97589.75;;;6.67;88.60
72336;BME280;73817;48.446;8.834;2023-12-20T03:31:53;97601.28;;;6.64;87.43
72336;BME280;73817;48.446;8.834;2023-12-20T03:34:53;97596.09;;;6.64;87.55
72336;BME280;73817;48.446;8.834;2023-12-20T03:37:53;97610.88;;;6.64;87.77
72336;BME280;73817;48.446;8.834;2023-12-20T03:40:54;97608.44;;;6.62;87.89
72336;BME280;73817;48.446;8.834;2023-12-20T03:43:54;97618.66;;;6.64;88.97
72336;BME280;73817;48.446;8.834;2023-12-20T03:46:54;97620.63;;;6.62;87.46
72336;BME280;73817;48.446;8.834;2023-12-20T03:49:55;97617.00;;;6.55;88.43
72336;BME280;73817;48.446;8.834;2023-12-20T03:52:55;97625.94;;;6.52;88.66
72336;BME280;73817;48.446;8.834;2023-12-20T03:55:55;97624.47;;;6.50;88.71
72336;BME280;73817;48.446;8.834;2023-12-20T03:58:56;97623.81;;;6.47;88.91
72336;BME280;73817;48.446;8.834;2023-12-20T04:01:56;97619.59;;;6.47;88.81
72336;BME280;73817;48.446;8.834;2023-12-20T04:04:56;97615.69;;;6.43;88.52
72336;BME280;73817;48.446;8.834;2023-12-20T04:07:57;97628.84;;;6.41;88.85
72336;BME280;73817;48.446;8.834;2023-12-20T04:10:58;97635.97;;;6.39;88.20
72336;BME280;73817;48.446;8.834;2023-12-20T04:13:58;97637.09;;;6.36;87.81
72336;BME280;73817;48.446;8.834;2023-12-20T04:16:58;97651.19;;;6.34;87.25
72336;BME280;73817;48.446;8.834;2023-12-20T04:19:59;97648.44;;;6.27;86.85
72336;BME280;73817;48.446;8.834;2023-12-20T04:22:59;97649.72;;;6.23;87.16
72336;BME280;73817;48.446;8.834;2023-12-20T04:25:59;97638.66;;;6.21;86.77
72336;BME280;73817;48.446;8.834;2023-12-20T04:29:00;97654.25;;;6.21;86.62
72336;BME280;73817;48.446;8.834;2023-12-20T04:32:00;97645.78;;;6.19;86.53
72336;BME280;73817;48.446;8.834;2023-12-20T04:35:00;97649.88;;;6.22;86.73
72336;BME280;73817;48.446;8.834;2023-12-20T04:38:01;97648.06;;;6.22;86.58
72336;BME280;73817;48.446;8.834;2023-12-20T04:41:01;97648.88;;;6.23;87.70
72336;BME280;73817;48.446;8.834;2023-12-20T04:44:02;97666.56;;;6.19;86.44
72336;BME280;73817;48.446;8.834;2023-12-20T04:47:02;97669.16;;;6.19;87.02
72336;BME280;73817;48.446;8.834;2023-12-20T04:50:03;97659.59;;;6.20;87.57
72336;BME280;73817;48.446;8.834;2023-12-20T04:53:04;97669.97;;;6.20;87.87
72336;BME280;73817;48.446;8.834;2023-12-20T04:56:04;97679.69;;;6.18;87.88
72336;BME280;73817;48.446;8.834;2023-12-20T04:59:05;97671.28;;;6.16;87.64
72336;BME280;73817;48.446;8.834;2023-12-20T05:02:05;97668.31;;;6.11;86.72
72336;BME280;73817;48.446;8.834;2023-12-20T05:05:06;97666.69;;;6.10;87.21
72336;BME280;73817;48.446;8.834;2023-12-20T05:08:07;97677.22;;;6.08;87.47
72336;BME280;73817;48.446;8.834;2023-12-20T05:11:07;97690.22;;;6.08;87.38
72336;BME280;73817;48.446;8.834;2023-12-20T05:14:07;97676.25;;;6.09;87.68
72336;BME280;73817;48.446;8.834;2023-12-20T05:17:08;97685.31;;;6.05;89.14
72336;BME280;73817;48.446;8.834;2023-12-20T05:20:08;97694.06;;;6.04;89.08
72336;BME280;73817;48.446;8.834;2023-12-20T05:23:09;97700.22;;;6.03;89.19
72336;BME280;73817;48.446;8.834;2023-12-20T05:26:09;97709.81;;;6.03;88.69
72336;BME280;73817;48.446;8.834;2023-12-20T05:29:10;97707.19;;;6.03;88.15
72336;BME280;73817;48.446;8.834;2023-12-20T05:32:10;97711.31;;;6.05;87.89
72336;BME280;73817;48.446;8.834;2023-12-20T05:35:10;97716.19;;;6.08;88.92
72336;BME280;73817;48.446;8.834;2023-12-20T05:38:11;97723.00;;;6.09;87.76
72336;BME280;73817;48.446;8.834;2023-12-20T05:41:11;97718.50;;;6.11;88.49
72336;BME280;73817;48.446;8.834;2023-12-20T05:44:11;97712.63;;;6.09;88.86
72336;BME280;73817;48.446;8.834;2023-12-20T05:47:12;97717.44;;;6.04;89.67
72336;BME280;73817;48.446;8.834;2023-12-20T05:50:12;97717.94;;;6.00;89.38
72336;BME280;73817;48.446;8.834;2023-12-20T05:53:12;97713.97;;;5.96;91.05
72336;BME280;73817;48.446;8.834;2023-12-20T05:56:13;97726.47;;;5.92;90.38
72336;BME280;73817;48.446;8.834;2023-12-20T05:59:13;97738.78;;;5.90;91.22
72336;BME280;73817;48.446;8.834;2023-12-20T06:02:14;97731.81;;;5.91;91.37
72336;BME280;73817;48.446;8.834;2023-12-20T06:05:14;97737.97;;;5.90;90.90
72336;BME280;73817;48.446;8.834;2023-12-20T06:08:14;97729.50;;;5.88;91.74
72336;BME280;73817;48.446;8.834;2023-12-20T06:11:15;97731.75;;;5.83;92.04
72336;BME280;73817;48.446;8.834;2023-12-20T06:14:15;97738.16;;;5.79;92.34
72336;BME280;73817;48.446;8.834;2023-12-20T06:17:15;97744.63;;;5.75;92.37
72336;BME280;73817;48.446;8.834;2023-12-20T06:20:16;97749.97;;;5.73;92.42
72336;BME280;73817;48.446;8.834;2023-12-20T06:23:16;97747.53;;;5.72;91.31
72336;BME280;73817;48.446;8.834;2023-12-20T06:26:16;97742.78;;;5.67;92.34
72336;BME280;73817;48.446;8.834;2023-12-20T06:29:17;97746.63;;;5.63;92.84
72336;BME280;73817;48.446;8.834;2023-12-20T06:32:17;97747.69;;;5.53;92.93
72336;BME280;73817;48.446;8.834;2023-12-20T06:35:18;97750.31;;;5.43;92.31
72336;BME280;73817;48.446;8.834;2023-12-20T06:38:18;97745.06;;;5.35;92.71
72336;BME280;73817;48.446;8.834;2023-12-20T06:41:19;97743.72;;;5.31;92.29
72336;BME280;73817;48.446;8.834;2023-12-20T06:44:20;97744.97;;;5.27;93.15
72336;BME280;73817;48.446;8.834;2023-12-20T06:47:21;97745.25;;;5.24;92.85
72336;BME280;73817;48.446;8.834;2023-12-20T06:50:21;97758.28;;;5.15;92.61
72336;BME280;73817;48.446;8.834;2023-12-20T06:53:22;97765.97;;;5.07;92.95
72336;BME280;73817;48.446;8.834;2023-12-20T06:56:22;97759.88;;;4.98;92.64
72336;BME280;73817;48.446;8.834;2023-12-20T06:59:22;97760.31;;;4.94;94.42
72336;BME280;73817;48.446;8.834;2023-12-20T07:02:23;97769.34;;;4.90;92.79
72336;BME280;73817;48.446;8.834;2023-12-20T07:05:23;97771.13;;;4.89;93.66
72336;BME280;73817;48.446;8.834;2023-12-20T07:08:24;97779.72;;;4.90;94.22
72336;BME280;73817;48.446;8.834;2023-12-20T07:11:24;97785.56;;;4.92;93.94
72336;BME280;73817;48.446;8.834;2023-12-20T07:14:26;97785.44;;;4.93;93.71
72336;BME280;73817;48.446;8.834;2023-12-20T07:17:27;97787.59;;;4.98;95.29
72336;BME280;73817;48.446;8.834;2023-12-20T07:20:28;97787.44;;;4.99;95.48
72336;BME280;73817;48.446;8.834;2023-12-20T07:23:28;97790.16;;;5.07;95.54
72336;BME280;73817;48.446;8.834;2023-12-20T07:26:29;97798.16;;;5.14;95.86
72336;BME280;73817;48.446;8.834;2023-12-20T07:29:29;97809.72;;;5.19;95.51
72336;BME280;73817;48.446;8.834;2023-12-20T07:32:30;97806.56;;;5.25;94.78
72336;BME280;73817;48.446;8.834;2023-12-20T07:35:30;97812.97;;;5.31;94.90
72336;BME280;73817;48.446;8.834;2023-12-20T07:38:30;97821.53;;;5.41;94.25
72336;BME280;73817;48.446;8.834;2023-12-20T07:41:31;97839.75;;;5.49;94.21
72336;BME280;73817;48.446;8.834;2023-12-20T07:44:31;97839.03;;;5.56;93.79
72336;BME280;73817;48.446;8.834;2023-12-20T07:47:32;97829.69;;;5.63;94.33
72336;BME280;73817;48.446;8.834;2023-12-20T07:50:32;97830.63;;;5.72;93.76
72336;BME280;73817;48.446;8.834;2023-12-20T07:53:33;97833.28;;;5.80;94.00
72336;BME280;73817;48.446;8.834;2023-12-20T07:56:33;97834.50;;;5.85;93.18
72336;BME280;73817;48.446;8.834;2023-12-20T07:59:33;97840.06;;;5.90;93.33
72336;BME280;73817;48.446;8.834;2023-12-20T08:02:34;97841.41;;;5.94;93.63
72336;BME280;73817;48.446;8.834;2023-12-20T08:05:34;97841.94;;;5.98;92.67
72336;BME280;73817;48.446;8.834;2023-12-20T08:08:34;97841.66;;;6.01;92.33
72336;BME280;73817;48.446;8.834;2023-12-20T08:11:35;97846.41;;;6.05;92.68
72336;BME280;73817;48.446;8.834;2023-12-20T08:14:35;97841.69;;;6.09;92.80
72336;BME280;73817;48.446;8.834;2023-12-20T08:17:35;97848.75;;;6.16;92.96
72336;BME280;73817;48.446;8.834;2023-12-20T08:20:36;97847.50;;;6.20;92.62
72336;BME280;73817;48.446;8.834;2023-12-20T08:23:36;97848.53;;;6.27;93.43
72336;BME280;73817;48.446;8.834;2023-12-20T08:26:37;97844.53;;;6.33;92.77
72336;BME280;73817;48.446;8.834;2023-12-20T08:29:37;97848.44;;;6.37;92.62
72336;BME280;73817;48.446;8.834;2023-12-20T08:32:37;97850.28;;;6.44;93.20
72336;BME280;73817;48.446;8.834;2023-12-20T08:35:41;97849.34;;;6.46;91.80
72336;BME280;73817;48.446;8.834;2023-12-20T08:38:41;97841.41;;;6.47;91.71
72336;BME280;73817;48.446;8.834;2023-12-20T08:41:41;97849.38;;;6.54;91.92
72336;BME280;73817;48.446;8.834;2023-12-20T08:44:42;97845.66;;;6.56;91.07
72336;BME280;73817;48.446;8.834;2023-12-20T08:47:42;97860.81;;;6.61;90.85
72336;BME280;73817;48.446;8.834;2023-12-20T08:50:45;97865.06;;;6.62;91.37
72336;BME280;73817;48.446;8.834;2023-12-20T08:53:45;97869.97;;;6.65;91.17
72336;BME280;73817;48.446;8.834;2023-12-20T08:56:47;97866.38;;;6.66;91.64
72336;BME280;73817;48.446;8.834;2023-12-20T08:59:48;97878.72;;;6.64;92.71
72336;BME280;73817;48.446;8.834;2023-12-20T09:02:48;97891.38;;;6.59;92.83
72336;BME280;73817;48.446;8.834;2023-12-20T09:05:48;97890.00;;;6.55;92.39
72336;BME280;73817;48.446;8.834;2023-12-20T09:08:49;97897.97;;;6.53;92.55
72336;BME280;73817;48.446;8.834;2023-12-20T09:11:49;97899.38;;;6.47;92.55
72336;BME280;73817;48.446;8.834;2023-12-20T09:14:51;97909.13;;;6.46;92.03
72336;BME280;73817;48.446;8.834;2023-12-20T09:17:52;97911.66;;;6.37;89.48
72336;BME280;73817;48.446;8.834;2023-12-20T09:20:54;97912.78;;;6.35;89.00
72336;BME280;73817;48.446;8.834;2023-12-20T09:23:54;97898.41;;;6.31;88.25
72336;BME280;73817;48.446;8.834;2023-12-20T09:26:55;97902.53;;;6.33;90.37
72336;BME280;73817;48.446;8.834;2023-12-20T09:29:55;97910.31;;;6.33;86.76
72336;BME280;73817;48.446;8.834;2023-12-20T09:32:55;97911.72;;;6.28;85.54
72336;BME280;73817;48.446;8.834;2023-12-20T09:35:56;97917.69;;;6.20;85.24
72336;BME280;73817;48.446;8.834;2023-12-20T09:38:56;97915.41;;;6.08;82.81
72336;BME280;73817;48.446;8.834;2023-12-20T09:42:01;97915.22;;;6.01;83.50
72336;BME280;73817;48.446;8.834;2023-12-20T09:45:03;97917.41;;;5.96;84.65
72336;BME280;73817;48.446;8.834;2023-12-20T09:48:04;97914.28;;;5.93;84.45
72336;BME280;73817;48.446;8.834;2023-12-20T09:51:04;97915.25;;;5.92;82.52
72336;BME280;73817;48.446;8.834;2023-12-20T09:54:05;97915.03;;;6.03;83.65
72336;BME280;73817;48.446;8.834;2023-12-20T09:57:05;97908.53;;;6.16;85.16
72336;BME280;73817;48.446;8.834;2023-12-20T10:00:06;97917.53;;;6.39;86.15
72336;BME280;73817;48.446;8.834;2023-12-20T10:03:08;97918.41;;;6.66;87.15
72336;BME280;73817;48.446;8.834;2023-12-20T10:06:09;97911.09;;;6.87;84.73
72336;BME280;73817;48.446;8.834;2023-12-20T10:09:10;97925.59;;;6.97;83.26
72336;BME280;73817;48.446;8.834;2023-12-20T10:12:11;97915.72;;;7.01;82.69
72336;BME280;73817;48.446;8.834;2023-12-20T10:15:11;97912.97;;;7.02;82.44
72336;BME280;73817;48.446;8.834;2023-12-20T10:18:12;97915.84;;;6.91;80.77
72336;BME280;73817;48.446;8.834;2023-12-20T10:21:13;97907.69;;;6.94;82.46
72336;BME280;73817;48.446;8.834;2023-12-20T10:24:17;97898.50;;;7.00;82.88
72336;BME280;73817;48.446;8.834;2023-12-20T10:27:18;97899.81;;;7.04;80.87
72336;BME280;73817;48.446;8.834;2023-12-20T10:30:19;97881.44;;;7.05;80.52
72336;BME280;73817;48.446;8.834;2023-12-20T10:33:27;97886.34;;;7.08;79.15
72336;BME280;73817;48.446;8.834;2023-12-20T10:36:31;97875.78;;;7.10;77.64
72336;BME280;73817;48.446;8.834;2023-12-20T10:39:31;97878.06;;;7.13;77.98
72336;BME280;73817;48.446;8.834;2023-12-20T10:42:32;97878.06;;;7.13;77.82
72336;BME280;73817;48.446;8.834;2023-12-20T10:45:36;97877.75;;;7.16;77.55
72336;BME280;73817;48.446;8.834;2023-12-20T10:48:38;97875.47;;;7.13;76.35
72336;BME280;73817;48.446;8.834;2023-12-20T10:51:39;97874.78;;;7.11;75.85
72336;BME280;73817;48.446;8.834;2023-12-20T10:54:40;97880.47;;;7.06;75.87
72336;BME280;73817;48.446;8.834;2023-12-20T10:57:42;97882.91;;;7.08;74.36
72336;BME280;73817;48.446;8.834;2023-12-20T11:00:43;97874.16;;;7.09;74.52
72336;BME280;73817;48.446;8.834;2023-12-20T11:03:53;97879.00;;;7.04;73.02
72336;BME280;73817;48.446;8.834;2023-12-20T11:07:08;97875.25;;;7.06;74.47
72336;BME280;73817;48.446;8.834;2023-12-20T11:10:26;97880.00;;;7.11;74.69
72336;BME280;73817;48.446;8.834;2023-12-20T11:13:36;97886.19;;;7.10;71.22
72336;BME280;73817;48.446;8.834;2023-12-20T11:16:38;97879.81;;;7.04;68.14
72336;BME280;73817;48.446;8.834;2023-12-20T11:22:59;97868.81;;;7.52;69.53
72336;BME280;73817;48.446;8.834;2023-12-20T11:26:02;97864.34;;;9.22;63.70
72336;BME280;73817;48.446;8.834;2023-12-20T11:29:29;97852.88;;;10.53;58.57
72336;BME280;73817;48.446;8.834;2023-12-20T11:32:30;97857.75;;;11.08;57.96
72336;BME280;73817;48.446;8.834;2023-12-20T11:35:30;97843.03;;;11.51;53.94
72336;BME280;73817;48.446;8.834;2023-12-20T11:38:37;97854.16;;;11.67;53.54
72336;BME280;73817;48.446;8.834;2023-12-20T11:41:37;97851.53;;;11.53;51.82
72336;BME280;73817;48.446;8.834;2023-12-20T11:44:38;97849.19;;;11.29;53.87
72336;BME280;73817;48.446;8.834;2023-12-20T11:47:38;97841.59;;;11.05;54.66
72336;BME280;73817;48.446;8.834;2023-12-20T11:50:39;97838.25;;;10.59;53.49
72336;BME280;73817;48.446;8.834;2023-12-20T11:53:40;97857.69;;;10.19;55.50
72336;BME280;73817;48.446;8.834;2023-12-20T11:56:42;97849.78;;;9.74;56.64
72336;BME280;73817;48.446;8.834;2023-12-20T11:59:43;97852.91;;;9.31;56.97
72336;BME280;73817;48.446;8.834;2023-12-20T12:02:43;97853.69;;;9.40;58.09
72336;BME280;73817;48.446;8.834;2023-12-20T12:05:47;97864.34;;;9.30;57.50
72336;BME280;73817;48.446;8.834;2023-12-20T12:08:47;97851.66;;;9.88;55.11
72336;BME280;73817;48.446;8.834;2023-12-20T12:11:48;97848.28;;;9.80;56.30
72336;BME280;73817;48.446;8.834;2023-12-20T12:14:49;97849.38;;;9.55;53.67
72336;BME280;73817;48.446;8.834;2023-12-20T12:17:56;97851.38;;;9.53;53.94
72336;BME280;73817;48.446;8.834;2023-12-20T12:21:00;97839.00;;;11.98;51.13
72336;BME280;73817;48.446;8.834;2023-12-20T12:24:08;97834.38;;;14.13;47.94
72336;BME280;73817;48.446;8.834;2023-12-20T12:27:09;97831.16;;;15.28;38.90
72336;BME280;73817;48.446;8.834;2023-12-20T12:30:10;97838.91;;;15.04;38.09
72336;BME280;73817;48.446;8.834;2023-12-20T12:33:12;97864.84;;;13.81;38.55
72336;BME280;73817;48.446;8.834;2023-12-20T12:36:13;97846.44;;;12.86;43.21
72336;BME280;73817;48.446;8.834;2023-12-20T12:39:18;97818.50;;;11.87;45.65
72336;BME280;73817;48.446;8.834;2023-12-20T12:42:18;97848.13;;;11.09;47.93
72336;BME280;73817;48.446;8.834;2023-12-20T12:45:19;97853.69;;;10.31;48.25
72336;BME280;73817;48.446;8.834;2023-12-20T12:48:19;97842.31;;;9.63;51.20
72336;BME280;73817;48.446;8.834;2023-12-20T12:51:19;97861.75;;;9.22;52.07
72336;BME280;73817;48.446;8.834;2023-12-20T12:54:20;97842.75;;;8.90;52.52
72336;BME280;73817;48.446;8.834;2023-12-20T12:57:20;97842.94;;;8.64;53.14
72336;BME280;73817;48.446;8.834;2023-12-20T13:00:21;97834.50;;;8.38;55.85
72336;BME280;73817;48.446;8.834;2023-12-20T13:03:21;97842.47;;;8.36;55.92
72336;BME280;73817;48.446;8.834;2023-12-20T13:06:22;97835.31;;;8.30;55.56
72336;BME280;73817;48.446;8.834;2023-12-20T13:09:23;97826.50;;;8.39;56.18
72336;BME280;73817;48.446;8.834;2023-12-20T13:12:23;97838.66;;;8.15;55.99
72336;BME280;73817;48.446;8.834;2023-12-20T13:15:23;97815.34;;;7.97;56.99
72336;BME280;73817;48.446;8.834;2023-12-20T13:18:24;97811.56;;;9.96;54.06
72336;BME280;73817;48.446;8.834;2023-12-20T13:21:24;97815.13;;;11.29;51.39
72336;BME280;73817;48.446;8.834;2023-12-20T13:24:24;97807.81;;;11.89;45.54
72336;BME280;73817;48.446;8.834;2023-12-20T13:27:25;97797.34;;;13.07;43.38
72336;BME280;73817;48.446;8.834;2023-12-20T13:30:25;97808.53;;;14.36;41.86
72336;BME280;73817;48.446;8.834;2023-12-20T13:33:25;97802.69;;;16.00;39.70
72336;BME280;73817;48.446;8.834;2023-12-20T13:36:26;97807.50;;;16.97;35.91
72336;BME280;73817;48.446;8.834;2023-12-20T13:39:26;97798.16;;;18.02;35.81
72336;BME280;73817;48.446;8.834;2023-12-20T13:42:27;97807.69;;;18.62;32.83
72336;BME280;73817;48.446;8.834;2023-12-20T13:45:27;97823.88;;;18.96;31.90
72336;BME280;73817;48.446;8.834;2023-12-20T13:48:28;97825.69;;;19.64;30.90
72336;BME280;73817;48.446;8.834;2023-12-20T13:51:28;97817.22;;;20.18;32.22
72336;BME280;73817;48.446;8.834;2023-12-20T13:54:28;97822.78;;;20.05;30.60
72336;BME280;73817;48.446;8.834;2023-12-20T13:57:29;97819.84;;;17.21;34.67
72336;BME280;73817;48.446;8.834;2023-12-20T14:00:29;97825.06;;;15.34;35.84
72336;BME280;73817;48.446;8.834;2023-12-20T14:03:30;97839.50;;;13.67;39.41
72336;BME280;73817;48.446;8.834;2023-12-20T14:06:31;97830.84;;;12.29;44.14
72336;BME280;73817;48.446;8.834;2023-12-20T14:09:31;97839.34;;;11.45;47.72
72336;BME280;73817;48.446;8.834;2023-12-20T14:12:33;97840.66;;;10.83;48.28
72336;BME280;73817;48.446;8.834;2023-12-20T14:15:36;97849.69;;;10.43;48.88
72336;BME280;73817;48.446;8.834;2023-12-20T14:18:37;97844.38;;;10.06;50.39
72336;BME280;73817;48.446;8.834;2023-12-20T14:21:37;97836.63;;;9.60;51.65
72336;BME280;73817;48.446;8.834;2023-12-20T14:24:37;97827.16;;;9.20;53.11
72336;BME280;73817;48.446;8.834;2023-12-20T14:27:39;97819.75;;;8.77;55.79
72336;BME280;73817;48.446;8.834;2023-12-20T14:30:39;97818.16;;;8.52;56.38
72336;BME280;73817;48.446;8.834;2023-12-20T14:33:40;97827.97;;;8.26;57.68
72336;BME280;73817;48.446;8.834;2023-12-20T14:36:42;97802.47;;;7.80;61.12
72336;BME280;73817;48.446;8.834;2023-12-20T14:39:42;97815.75;;;7.53;60.66
72336;BME280;73817;48.446;8.834;2023-12-20T14:42:43;97813.09;;;7.37;61.85
72336;BME280;73817;48.446;8.834;2023-12-20T14:45:44;97824.56;;;7.18;63.78
72336;BME280;73817;48.446;8.834;2023-12-20T14:48:44;97811.78;;;6.99;65.88
72336;BME280;73817;48.446;8.834;2023-12-20T14:51:45;97815.47;;;6.89;66.76
72336;BME280;73817;48.446;8.834;2023-12-20T14:54:47;97808.34;;;6.65;66.21
72336;BME280;73817;48.446;8.834;2023-12-20T14:57:48;97805.00;;;6.47;68.44
72336;BME280;73817;48.446;8.834;2023-12-20T15:00:49;97815.09;;;6.32;69.16
72336;BME280;73817;48.446;8.834;2023-12-20T15:03:49;97815.22;;;6.23;69.01
72336;BME280;73817;48.446;8.834;2023-12-20T15:06:50;97822.72;;;6.08;69.59
72336;BME280;73817;48.446;8.834;2023-12-20T15:09:50;97814.69;;;6.02;71.18
72336;BME280;73817;48.446;8.834;2023-12-20T15:12:51;97811.88;;;5.95;71.29
72336;BME280;73817;48.446;8.834;2023-12-20T15:15:51;97823.22;;;5.94;71.66
72336;BME280;73817;48.446;8.834;2023-12-20T15:18:52;97824.78;;;5.87;72.34
72336;BME280;73817;48.446;8.834;2023-12-20T15:21:53;97820.44;;;5.78;72.91
72336;BME280;73817;48.446;8.834;2023-12-20T15:24:54;97819.41;;;5.71;74.24
72336;BME280;73817;48.446;8.834;2023-12-20T15:27:55;97821.13;;;5.63;73.90
72336;BME280;73817;48.446;8.834;2023-12-20T15:30:55;97831.25;;;5.56;74.75
72336;BME280;73817;48.446;8.834;2023-12-20T15:33:56;97830.75;;;5.53;75.03
72336;BME280;73817;48.446;8.834;2023-12-20T15:36:57;97829.03;;;5.44;75.72
72336;BME280;73817;48.446;8.834;2023-12-20T15:39:57;97837.53;;;5.36;76.93
72336;BME280;73817;48.446;8.834;2023-12-20T15:42:58;97826.03;;;5.39;76.82
72336;BME280;73817;48.446;8.834;2023-12-20T15:45:59;97822.91;;;5.35;76.33
72336;BME280;73817;48.446;8.834;2023-12-20T15:49:00;97831.00;;;5.32;76.62
72336;BME280;73817;48.446;8.834;2023-12-20T15:52:00;97825.81;;;5.32;77.19
72336;BME280;73817;48.446;8.834;2023-12-20T15:55:01;97817.78;;;5.26;77.85
72336;BME280;73817;48.446;8.834;2023-12-20T15:58:01;97822.81;;;5.27;77.37
72336;BME280;73817;48.446;8.834;2023-12-20T16:01:02;97839.22;;;5.28;77.24
72336;BME280;73817;48.446;8.834;2023-12-20T16:04:03;97823.53;;;5.20;77.43
72336;BME280;73817;48.446;8.834;2023-12-20T16:07:03;97823.00;;;5.16;78.11
72336;BME280;73817;48.446;8.834;2023-12-20T16:10:04;97830.41;;;5.11;77.58
72336;BME280;73817;48.446;8.834;2023-12-20T16:13:05;97834.25;;;5.07;78.76